HBBA/BJM METAR and TAF weather

Enter ICAO airport designator
Station Type Date Time Source
HBBA METAR 2019/08/22 09:00 UTC NOAA

HBBA 220900Z 18020KT 4000 HZ FEW035TCU 29/20 Q1016 NOSIG


Station Type Date Time Source
HBBA Decoded METAR 2019/08/22 09:00 UTC NOAA

Station name not available
Aug 22, 2019 - 05:00 AM EDT / 2019.08.22 0900 UTC
Wind: from the S (180 degrees) at 23 MPH (20 KT):0
Visibility: 2 mile(s):0
Sky conditions: mostly clear
Weather: haze; Towering cumulus clouds observed
Temperature: 84 F (29 C)
Dew Point: 68 F (20 C)
Relative Humidity: 58%
Pressure (altimeter): 30.00 in. Hg (1016 hPa)
ob: HBBA 220900Z 18020KT 4000 HZ FEW035TCU 29/20 Q1016 NOSIG
cycle: 9

Station Type Date Time Source
HBBA TAF 2019/08/22 06:54 UTC NOAA

TAF TAF HBBA 220500Z 2206/2312 18010G20KT 8000 FEW030
BECMG 2217/2219 VRB03KT CAVOK
BECMG 2303/2305 36002KT
BECMG 2306/2308 5000 HZ NSC
BECMG 2309/2310 18010G15KT 7000 FEW030

Example: see airport list